Time;durP1;ratioP1;P1;durP2;ratioP2;P2;SDS_P1;SDS_P2;PMS_P1;PMS_P2;Temp;Humidity;BMP_temperature;BMP_pressure;BME280_temperature;BME280_humidity;BME280_pressure;Samples;Min_cycle;Max_cycle;Signal;HPM_P1;HPM_P2
2023/07/13 00:01:29;;;;;;;3.70;1.37;;;21.60;88.80;;;;;;4970071;28;20194;-75
2023/07/13 00:03:58;;;;;;;2.23;1.60;;;21.70;89.30;;;;;;4970423;28;20542;-76
2023/07/13 00:06:24;;;;;;;3.23;1.30;;;21.60;89.50;;;;;;4969503;28;20282;-75
2023/07/13 00:08:50;;;;;;;2.93;1.53;;;21.60;89.90;;;;;;4985607;28;20791;-74
2023/07/13 00:11:17;;;;;;;1.70;1.60;;;21.50;89.20;;;;;;4971401;28;20193;-74
2023/07/13 00:13:43;;;;;;;2.10;1.27;;;21.40;89.20;;;;;;4985359;28;20219;-74
2023/07/13 00:16:10;;;;;;;6.07;1.50;;;21.50;89.80;;;;;;4984662;28;20987;-78
2023/07/13 00:18:36;;;;;;;2.33;1.27;;;21.50;89.70;;;;;;4983927;28;20188;-75
2023/07/13 00:21:05;;;;;;;1.70;1.43;;;21.40;89.90;;;;;;4971973;28;20471;-75
2023/07/13 00:23:35;;;;;;;3.43;1.50;;;21.40;89.60;;;;;;4969604;28;20529;-75
2023/07/13 00:26:03;;;;;;;2.70;1.80;;;21.40;88.90;;;;;;4971781;28;20454;-75
2023/07/13 00:28:28;;;;;;;4.45;1.48;;;21.30;88.20;;;;;;4967624;28;20479;-75
2023/07/13 00:30:54;;;;;;;1.93;1.37;;;21.30;88.00;;;;;;4969319;28;20575;-76
2023/07/13 00:33:20;;;;;;;1.33;1.20;;;21.20;89.80;;;;;;4969352;28;20226;-75
2023/07/13 00:35:46;;;;;;;4.27;1.60;;;21.20;89.00;;;;;;4969321;28;20191;-76
2023/07/13 00:38:11;;;;;;;2.60;1.73;;;21.10;88.20;;;;;;4970159;28;20451;-76
2023/07/13 00:40:37;;;;;;;1.80;1.67;;;21.10;88.70;;;;;;4969057;28;20199;-76
2023/07/13 00:43:04;;;;;;;2.57;1.70;;;21.00;87.80;;;;;;4966737;28;20220;-74
2023/07/13 00:45:30;;;;;;;2.10;1.25;;;21.10;88.80;;;;;;4985940;28;20198;-75
2023/07/13 00:47:57;;;;;;;1.77;1.30;;;21.10;86.60;;;;;;4968712;28;20668;-76
2023/07/13 00:50:23;;;;;;;2.72;1.50;;;21.00;87.10;;;;;;4968501;28;20211;-75
2023/07/13 00:52:57;;;;;;;3.25;1.83;;;21.00;86.70;;;;;;4967737;28;20204;-75
2023/07/13 00:55:23;;;;;;;2.40;1.70;;;20.90;86.40;;;;;;4969342;28;20195;-75
2023/07/13 00:57:49;;;;;;;2.70;1.50;;;20.90;86.10;;;;;;4966468;28;20188;-75
2023/07/13 01:00:16;;;;;;;2.30;1.30;;;20.90;85.60;;;;;;4968116;28;20271;-76
2023/07/13 01:02:44;;;;;;;2.88;1.80;;;20.90;85.60;;;;;;4967891;28;20251;-75
2023/07/13 01:05:13;;;;;;;5.43;1.63;;;20.90;86.10;;;;;;4969051;28;20612;-75
2023/07/13 01:07:40;;;;;;;4.15;1.50;;;20.90;86.40;;;;;;4967888;28;20624;-75
2023/07/13 01:10:07;;;;;;;2.13;1.60;;;20.90;86.30;;;;;;4969496;28;20196;-75
2023/07/13 01:12:32;;;;;;;2.75;1.80;;;20.90;86.10;;;;;;4966835;28;20474;-74
2023/07/13 01:15:00;;;;;;;2.40;1.50;;;20.90;86.10;;;;;;4968472;28;20184;-75
2023/07/13 01:17:27;;;;;;;2.38;1.80;;;20.90;86.30;;;;;;4970806;28;20188;-75
2023/07/13 01:19:52;;;;;;;2.08;1.50;;;20.80;86.60;;;;;;4968610;28;20250;-75
2023/07/13 01:22:19;;;;;;;2.90;1.40;;;20.80;87.20;;;;;;4965975;28;20579;-75
2023/07/13 01:24:46;;;;;;;2.42;1.83;;;20.70;88.80;;;;;;4970819;28;20474;-75
2023/07/13 01:27:15;;;;;;;2.17;1.40;;;20.70;90.10;;;;;;4971602;28;20176;-78
2023/07/13 01:29:43;;;;;;;1.70;1.60;;;21.10;90.70;;;;;;4966592;28;20188;-75
2023/07/13 01:32:31;;;;;;;3.83;1.52;;;20.60;92.20;;;;;;4968445;28;20279;-76
2023/07/13 01:34:56;;;;;;;2.50;1.67;;;20.60;91.70;;;;;;4966962;28;20198;-76
2023/07/13 01:37:25;;;;;;;3.50;1.87;;;20.50;91.40;;;;;;4968754;28;20204;-75
2023/07/13 01:39:50;;;;;;;2.40;1.65;;;20.40;91.60;;;;;;4966207;28;20227;-75
2023/07/13 01:42:16;;;;;;;1.73;1.53;;;20.40;91.50;;;;;;4981982;28;20191;-78
2023/07/13 01:44:41;;;;;;;3.10;1.73;;;20.30;91.70;;;;;;4983422;28;20206;-76
2023/07/13 01:47:07;;;;;;;2.03;1.73;;;20.10;92.20;;;;;;4972519;28;20200;-74
2023/07/13 01:49:32;;;;;;;5.90;1.70;;;20.10;92.50;;;;;;4973041;28;20234;-75
2023/07/13 01:51:58;;;;;;;2.40;1.80;;;20.00;92.90;;;;;;4990722;28;20219;-75
2023/07/13 01:54:24;;;;;;;2.67;1.70;;;19.90;93.10;;;;;;4972539;28;20216;-76
2023/07/13 01:56:49;;;;;;;3.10;1.80;;;19.80;93.40;;;;;;4970762;28;20196;-75
2023/07/13 01:59:15;;;;;;;5.53;1.80;;;19.70;94.00;;;;;;4970260;28;20219;-77
2023/07/13 02:01:41;;;;;;;2.87;1.80;;;19.60;94.30;;;;;;4984912;28;20668;-75
2023/07/13 02:04:06;;;;;;;2.03;1.60;;;19.60;94.50;;;;;;4972510;28;20685;-74
2023/07/13 02:06:32;;;;;;;5.07;1.80;;;19.50;94.50;;;;;;4972892;28;20230;-75
2023/07/13 02:08:58;;;;;;;1.63;1.53;;;19.40;94.40;;;;;;4985881;28;20275;-75
2023/07/13 02:11:24;;;;;;;2.00;1.80;;;19.40;94.40;;;;;;4972398;28;20673;-74
2023/07/13 02:13:50;;;;;;;2.03;1.63;;;19.40;94.70;;;;;;4970719;28;20227;-74
2023/07/13 02:16:16;;;;;;;2.90;2.23;;;19.40;94.80;;;;;;4972001;28;20188;-76
2023/07/13 02:18:41;;;;;;;1.93;1.73;;;19.40;95.10;;;;;;4971251;28;20494;-77
2023/07/13 02:21:07;;;;;;;2.50;1.80;;;19.30;95.10;;;;;;4971059;28;20216;-75
2023/07/13 02:23:33;;;;;;;2.47;2.13;;;19.20;95.50;;;;;;4969444;28;20230;-75
2023/07/13 02:26:00;;;;;;;1.90;1.70;;;19.10;95.70;;;;;;4987769;28;20645;-76
2023/07/13 02:28:25;;;;;;;2.47;1.90;;;18.80;96.10;;;;;;4971010;28;20195;-75
2023/07/13 02:30:51;;;;;;;2.67;2.20;;;19.00;96.70;;;;;;4986352;28;20200;-74
2023/07/13 02:33:17;;;;;;;3.33;2.07;;;18.90;97.70;;;;;;4971730;28;20728;-75
2023/07/13 02:35:42;;;;;;;3.57;2.03;;;18.90;97.60;;;;;;4973974;28;20192;-75
2023/07/13 02:38:08;;;;;;;2.97;1.83;;;18.80;96.90;;;;;;4985803;28;20283;-75
2023/07/13 02:40:35;;;;;;;2.43;1.43;;;18.80;97.10;;;;;;4988833;28;20577;-75
2023/07/13 02:43:01;;;;;;;2.75;1.75;;;18.80;97.20;;;;;;4971691;28;20685;-74
2023/07/13 02:45:27;;;;;;;2.22;1.58;;;18.80;97.20;;;;;;4973529;28;20195;-74
2023/07/13 02:47:52;;;;;;;3.10;1.90;;;18.70;97.20;;;;;;4971507;28;20641;-75
2023/07/13 02:50:18;;;;;;;2.20;1.80;;;18.70;97.30;;;;;;4970886;28;20193;-75
2023/07/13 02:52:43;;;;;;;3.03;1.93;;;18.60;97.30;;;;;;4971827;28;20654;-74
2023/07/13 02:55:09;;;;;;;2.00;1.90;;;18.60;97.60;;;;;;4988784;28;20192;-75
2023/07/13 02:57:35;;;;;;;2.90;1.80;;;18.50;97.60;;;;;;4971267;28;20200;-74
2023/07/13 03:00:05;;;;;;;2.20;2.00;;;18.50;97.50;;;;;;4971268;28;20196;-76
2023/07/13 03:02:32;;;;;;;1.83;1.73;;;18.50;97.60;;;;;;4984916;28;20196;-75
2023/07/13 03:04:58;;;;;;;1.95;1.73;;;18.40;97.50;;;;;;4986357;28;20679;-75
2023/07/13 03:07:25;;;;;;;3.80;2.00;;;18.40;97.40;;;;;;4971145;28;20189;-75
2023/07/13 03:09:57;;;;;;;2.85;1.60;;;18.40;97.50;;;;;;4971234;28;20502;-74
2023/07/13 03:12:23;;;;;;;1.50;1.40;;;18.30;97.40;;;;;;4970334;28;20180;-74
2023/07/13 03:14:48;;;;;;;3.33;2.30;;;18.30;97.70;;;;;;4967036;28;20579;-75
2023/07/13 03:17:14;;;;;;;1.93;1.70;;;18.50;98.20;;;;;;4970112;28;20184;-75
2023/07/13 03:19:40;;;;;;;3.97;1.90;;;18.30;98.10;;;;;;4967955;28;20199;-76
2023/07/13 03:22:06;;;;;;;3.93;1.70;;;18.30;98.20;;;;;;4969393;28;20556;-75
2023/07/13 03:24:33;;;;;;;3.10;1.93;;;18.10;98.20;;;;;;4970247;28;20211;-74
2023/07/13 03:27:01;;;;;;;4.93;1.90;;;18.30;98.20;;;;;;4970031;28;20707;-75
2023/07/13 03:29:26;;;;;;;3.58;1.80;;;18.40;97.90;;;;;;4980289;28;20192;-77
2023/07/13 03:31:52;;;;;;;2.00;1.80;;;18.40;98.60;;;;;;4970331;28;20563;-74
2023/07/13 03:34:18;;;;;;;3.23;1.90;;;18.40;99.00;;;;;;4974360;28;20215;-74
2023/07/13 03:36:43;;;;;;;4.10;1.67;;;18.40;98.00;;;;;;4970511;28;20180;-75
2023/07/13 03:39:09;;;;;;;2.03;1.87;;;18.50;97.60;;;;;;4969248;28;20425;-75
2023/07/13 03:41:35;;;;;;;2.65;1.70;;;18.50;97.60;;;;;;4971678;28;20189;-74
2023/07/13 03:44:00;;;;;;;2.17;1.83;;;18.40;97.70;;;;;;4967171;28;20223;-75
2023/07/13 03:46:27;;;;;;;2.03;1.83;;;18.50;97.70;;;;;;4970405;28;20231;-74
2023/07/13 03:48:52;;;;;;;3.67;2.20;;;18.60;97.70;;;;;;4969953;28;20196;-75
2023/07/13 03:51:18;;;;;;;2.77;1.93;;;18.60;97.60;;;;;;4969172;28;20198;-75
2023/07/13 03:53:46;;;;;;;3.15;2.05;;;18.60;97.60;;;;;;4969435;28;20226;-77
2023/07/13 03:56:14;;;;;;;2.30;2.10;;;18.70;97.40;;;;;;4967228;28;20267;-74
2023/07/13 03:58:41;;;;;;;4.10;1.90;;;18.70;97.20;;;;;;4969681;28;20213;-74
2023/07/13 04:01:08;;;;;;;4.45;2.45;;;18.70;97.30;;;;;;4970374;28;20456;-74
2023/07/13 04:03:35;;;;;;;2.40;1.90;;;18.80;97.20;;;;;;4969716;28;20215;-74
2023/07/13 04:06:02;;;;;;;5.43;2.20;;;18.70;97.00;;;;;;4986065;28;20228;-74
2023/07/13 04:08:30;;;;;;;3.42;2.05;;;18.80;97.20;;;;;;4969107;28;20189;-75
2023/07/13 04:10:56;;;;;;;2.38;1.80;;;18.80;96.90;;;;;;4969129;28;20199;-76
2023/07/13 04:13:22;;;;;;;3.35;2.00;;;18.80;96.90;;;;;;4969588;28;20576;-75
2023/07/13 04:15:48;;;;;;;4.70;2.15;;;18.80;97.10;;;;;;4970432;28;20241;-76
2023/07/13 04:18:13;;;;;;;1.73;1.63;;;18.90;97.20;;;;;;4969436;28;20672;-74
2023/07/13 04:20:39;;;;;;;2.93;2.03;;;18.90;97.10;;;;;;4968671;28;20627;-74
2023/07/13 04:23:04;;;;;;;4.40;2.40;;;18.80;97.40;;;;;;4967620;28;20207;-73
2023/07/13 04:25:30;;;;;;;3.37;1.77;;;18.90;97.40;;;;;;4968066;28;20194;-74
2023/07/13 04:27:56;;;;;;;1.90;1.60;;;18.90;97.30;;;;;;4964311;28;20192;-74
2023/07/13 04:30:22;;;;;;;2.85;2.35;;;19.00;97.20;;;;;;4968133;28;20212;-65
2023/07/13 04:32:49;;;;;;;2.55;1.83;;;18.90;98.10;;;;;;4967259;28;20290;-65
2023/07/13 04:35:15;;;;;;;4.40;2.25;;;18.70;98.10;;;;;;4967675;28;20188;-66
2023/07/13 04:37:41;;;;;;;2.83;2.30;;;18.60;98.00;;;;;;4965350;28;20203;-65
2023/07/13 04:40:11;;;;;;;2.13;1.93;;;18.70;98.20;;;;;;4966479;28;20720;-65
2023/07/13 04:42:37;;;;;;;3.25;2.05;;;18.60;98.30;;;;;;4966041;28;20203;-65
2023/07/13 04:45:02;;;;;;;3.00;1.93;;;18.70;98.20;;;;;;4966738;28;20192;-66
2023/07/13 04:47:30;;;;;;;4.47;3.10;;;19.00;97.90;;;;;;4966091;28;20212;-65
2023/07/13 04:49:57;;;;;;;2.30;2.10;;;18.70;97.80;;;;;;4965653;28;20184;-63
2023/07/13 04:52:23;;;;;;;3.83;1.90;;;18.50;97.70;;;;;;4966340;28;20223;-65
2023/07/13 04:54:48;;;;;;;5.67;2.30;;;18.40;97.70;;;;;;4965372;28;20677;-66
2023/07/13 04:57:14;;;;;;;2.30;1.97;;;18.50;98.00;;;;;;4967344;28;20284;-65
2023/07/13 04:59:40;;;;;;;4.78;2.00;;;18.40;98.10;;;;;;4966196;28;20215;-65
2023/07/13 05:02:07;;;;;;;2.10;1.90;;;18.50;98.30;;;;;;4967081;28;20193;-65
2023/07/13 05:04:32;;;;;;;2.30;2.10;;;18.40;98.50;;;;;;4966845;28;20562;-65
2023/07/13 05:06:59;;;;;;;2.50;2.03;;;18.60;98.50;;;;;;4967833;28;20187;-65
2023/07/13 05:09:25;;;;;;;2.20;1.92;;;18.60;98.50;;;;;;4967115;28;20195;-65
2023/07/13 05:11:51;;;;;;;2.60;2.40;;;18.20;98.40;;;;;;4966077;28;20193;-64
2023/07/13 05:14:16;;;;;;;3.63;2.17;;;18.60;98.60;;;;;;4966497;28;20407;-65
2023/07/13 05:16:42;;;;;;;2.33;2.13;;;18.70;98.40;;;;;;4968551;28;20216;-66
2023/07/13 05:19:08;;;;;;;4.33;2.47;;;18.70;98.40;;;;;;4966916;28;20551;-64
2023/07/13 05:21:34;;;;;;;2.92;2.15;;;18.90;98.20;;;;;;4964614;28;20190;-63
2023/07/13 05:24:00;;;;;;;5.77;2.50;;;18.80;98.10;;;;;;4965508;28;20212;-65
2023/07/13 05:26:25;;;;;;;6.83;3.07;;;18.80;98.10;;;;;;4966396;28;20196;-65
2023/07/13 05:28:51;;;;;;;4.47;2.30;;;18.90;97.70;;;;;;4960712;28;20271;-71
2023/07/13 05:31:16;;;;;;;3.40;2.23;;;19.00;98.20;;;;;;4964926;28;20204;-71
2023/07/13 05:33:42;;;;;;;3.80;2.10;;;19.10;98.30;;;;;;4964930;28;20699;-70
2023/07/13 05:36:07;;;;;;;3.20;2.07;;;19.40;97.40;;;;;;4967186;28;20176;-70
2023/07/13 05:38:33;;;;;;;2.43;1.77;;;19.60;96.90;;;;;;4966513;28;20246;-71
2023/07/13 05:40:59;;;;;;;2.83;2.20;;;19.90;96.40;;;;;;4966305;28;20598;-70
2023/07/13 05:43:25;;;;;;;5.63;2.70;;;19.90;94.20;;;;;;4965458;28;20463;-70
2023/07/13 05:45:53;;;;;;;2.43;2.03;;;19.90;93.60;;;;;;4967240;28;20224;-70
2023/07/13 05:48:19;;;;;;;4.88;2.60;;;20.00;93.20;;;;;;4966150;28;20879;-70
2023/07/13 05:50:44;;;;;;;2.37;2.10;;;20.10;92.50;;;;;;4965266;28;20259;-70
2023/07/13 05:53:11;;;;;;;5.73;2.63;;;20.30;93.00;;;;;;4969015;28;20350;-71
2023/07/13 05:55:44;;;;;;;3.35;2.40;;;20.40;93.10;;;;;;4966312;28;20208;-70
2023/07/13 05:58:11;;;;;;;5.40;2.10;;;20.60;93.20;;;;;;4965286;28;20547;-70
2023/07/13 06:00:37;;;;;;;4.03;2.20;;;20.70;93.10;;;;;;4965600;28;20691;-71
2023/07/13 06:03:02;;;;;;;21.30;7.07;;;20.70;93.10;;;;;;4965813;28;20216;-70
2023/07/13 06:05:28;;;;;;;3.53;2.00;;;20.70;92.10;;;;;;4968418;28;20193;-70
2023/07/13 06:07:54;;;;;;;3.20;2.07;;;20.70;91.90;;;;;;4962708;28;20199;-70
2023/07/13 06:10:20;;;;;;;3.03;2.10;;;20.70;91.40;;;;;;4966323;28;21044;-70
2023/07/13 06:12:45;;;;;;;1.97;1.80;;;20.80;91.10;;;;;;4965403;28;20598;-70
2023/07/13 06:15:11;;;;;;;4.77;2.47;;;20.90;90.80;;;;;;4967335;28;20696;-70
2023/07/13 06:17:37;;;;;;;2.40;2.13;;;21.00;90.40;;;;;;4968437;28;20184;-70
2023/07/13 06:20:03;;;;;;;4.83;2.67;;;21.10;90.40;;;;;;4966287;28;20185;-70
2023/07/13 06:22:28;;;;;;;3.20;2.00;;;21.20;89.70;;;;;;4964871;28;20657;-70
2023/07/13 06:24:54;;;;;;;3.40;2.17;;;21.00;89.00;;;;;;4968874;28;20839;-70
2023/07/13 06:27:19;;;;;;;3.70;2.33;;;21.40;88.50;;;;;;4966819;28;20179;-70
2023/07/13 06:29:45;;;;;;;6.50;2.77;;;21.50;87.30;;;;;;4965578;28;20200;-71
2023/07/13 06:32:11;;;;;;;7.07;3.03;;;21.70;86.90;;;;;;4972234;28;20219;-71
2023/07/13 06:34:36;;;;;;;2.33;2.10;;;21.60;87.40;;;;;;4970697;28;20325;-71
2023/07/13 06:37:02;;;;;;;2.20;2.00;;;21.60;85.10;;;;;;4968916;28;20192;-70
2023/07/13 06:39:28;;;;;;;3.17;2.00;;;21.70;84.50;;;;;;4965407;28;20279;-71
2023/07/13 06:41:53;;;;;;;2.13;1.93;;;21.90;83.90;;;;;;4970269;28;20578;-70
2023/07/13 06:44:19;;;;;;;2.57;2.03;;;22.00;83.10;;;;;;4968638;28;20298;-70
2023/07/13 06:46:44;;;;;;;2.27;2.07;;;22.20;81.80;;;;;;4968047;28;20180;-70
2023/07/13 06:49:10;;;;;;;3.40;2.63;;;22.30;81.50;;;;;;4966161;28;20703;-66
2023/07/13 06:51:36;;;;;;;2.80;2.60;;;22.70;80.70;;;;;;4967053;28;20395;-66
2023/07/13 06:54:01;;;;;;;4.87;2.27;;;23.30;79.60;;;;;;4973546;28;20224;-71
2023/07/13 06:56:27;;;;;;;2.40;2.13;;;23.70;77.80;;;;;;4974821;28;20200;-70
2023/07/13 06:58:52;;;;;;;2.90;2.70;;;23.50;75.80;;;;;;4969668;28;20351;-70
2023/07/13 07:01:18;;;;;;;4.67;3.47;;;23.50;75.90;;;;;;4970297;28;20242;-69
2023/07/13 07:03:44;;;;;;;2.73;2.03;;;23.80;73.90;;;;;;4972798;28;20247;-66
2023/07/13 07:06:15;;;;;;;3.77;1.90;;;24.00;72.40;;;;;;4972224;28;20223;-66
2023/07/13 07:08:41;;;;;;;3.97;2.20;;;23.30;72.60;;;;;;4971370;28;20196;-65
2023/07/13 07:11:12;;;;;;;4.10;2.20;;;23.20;72.40;;;;;;4977135;28;20606;-66
2023/07/13 07:13:37;;;;;;;3.47;2.00;;;23.60;73.30;;;;;;4970187;28;20218;-65
2023/07/13 07:16:03;;;;;;;2.03;1.70;;;24.80;69.10;;;;;;4966501;28;20454;-71
2023/07/13 07:18:29;;;;;;;2.83;1.60;;;26.50;64.00;;;;;;4983982;28;20190;-72
2023/07/13 07:20:54;;;;;;;1.87;1.63;;;28.50;56.30;;;;;;4973938;28;20224;-71
2023/07/13 07:23:22;;;;;;;2.70;1.70;;;30.50;52.10;;;;;;4978296;28;20721;-71
2023/07/13 07:25:47;;;;;;;1.90;1.47;;;32.60;48.80;;;;;;4968052;28;20601;-72
2023/07/13 07:28:17;;;;;;;1.57;1.33;;;33.40;44.00;;;;;;4973032;28;20519;-72
2023/07/13 07:30:46;;;;;;;2.23;1.63;;;32.70;45.00;;;;;;4970129;28;20208;-73
2023/07/13 07:33:12;;;;;;;3.77;1.60;;;33.40;44.10;;;;;;4970639;28;20478;-68
2023/07/13 07:35:38;;;;;;;1.70;1.60;;;34.30;41.10;;;;;;4984454;28;20475;-68
2023/07/13 07:38:04;;;;;;;2.27;1.60;;;34.30;39.90;;;;;;4987799;28;20892;-67
2023/07/13 07:40:29;;;;;;;1.53;1.30;;;35.60;40.10;;;;;;4973876;28;20196;-68
2023/07/13 07:42:55;;;;;;;2.53;1.70;;;36.50;36.90;;;;;;4964985;28;20296;-68
2023/07/13 07:45:21;;;;;;;3.50;1.50;;;37.20;35.10;;;;;;4967765;28;20681;-68
2023/07/13 07:47:46;;;;;;;2.27;1.60;;;36.50;35.80;;;;;;4969011;28;20196;-73
2023/07/13 07:50:13;;;;;;;2.20;2.00;;;35.80;34.90;;;;;;4972416;28;20824;-69
2023/07/13 07:52:38;;;;;;;2.53;2.27;;;35.60;35.40;;;;;;4970520;28;20198;-69
2023/07/13 07:55:06;;;;;;;14.73;4.40;;;37.50;34.40;;;;;;4967206;28;20604;-73
2023/07/13 07:57:32;;;;;;;4.23;2.07;;;37.10;31.90;;;;;;4968020;28;20200;-73
2023/07/13 07:59:57;;;;;;;5.13;1.67;;;36.90;32.30;;;;;;4970902;28;20809;-72
2023/07/13 08:02:25;;;;;;;2.80;1.50;;;37.50;31.10;;;;;;4967762;28;20201;-72
2023/07/13 08:04:50;;;;;;;2.80;2.07;;;37.00;31.00;;;;;;4983562;28;20304;-72
2023/07/13 08:07:16;;;;;;;2.20;1.30;;;37.80;31.00;;;;;;4968105;28;20588;-72
2023/07/13 08:09:42;;;;;;;1.50;1.40;;;38.90;29.90;;;;;;4968501;28;20192;-70
2023/07/13 08:12:08;;;;;;;2.60;1.50;;;39.50;29.30;;;;;;4968006;28;20902;-70
2023/07/13 08:14:33;;;;;;;2.07;1.67;;;38.60;29.50;;;;;;4969034;28;20292;-69
2023/07/13 08:16:59;;;;;;;1.70;1.60;;;38.50;30.00;;;;;;4969943;28;20850;-70
2023/07/13 08:19:25;;;;;;;1.63;1.50;;;39.50;28.60;;;;;;4967436;28;20192;-69
2023/07/13 08:21:50;;;;;;;2.60;1.40;;;39.90;28.70;;;;;;4969852;28;20231;-69
2023/07/13 08:24:18;;;;;;;3.00;1.50;;;39.00;28.60;;;;;;4968488;28;20503;-69
2023/07/13 08:26:44;;;;;;;3.53;2.17;;;39.90;28.30;;;;;;4965162;28;20188;-69
2023/07/13 08:29:10;;;;;;;3.43;2.37;;;39.30;28.20;;;;;;4965581;28;20538;-69
2023/07/13 08:31:36;;;;;;;2.63;1.77;;;40.10;28.70;;;;;;4971132;28;20558;-74
2023/07/13 08:34:02;;;;;;;1.93;1.80;;;38.70;28.80;;;;;;4971954;28;20230;-75
2023/07/13 08:36:29;;;;;;;3.00;1.73;;;38.20;28.60;;;;;;4968016;28;20239;-69
2023/07/13 08:38:54;;;;;;;2.90;1.40;;;39.20;28.70;;;;;;4968898;28;20443;-71
2023/07/13 08:41:21;;;;;;;3.07;1.70;;;40.00;28.10;;;;;;4964698;28;20822;-72
2023/07/13 08:43:51;;;;;;;3.73;1.40;;;38.20;28.80;;;;;;4966685;28;20248;-69
2023/07/13 08:46:26;;;;;;;2.53;1.60;;;38.40;29.10;;;;;;4967783;28;20448;-69
2023/07/13 08:49:11;;;;;;;1.87;1.70;;;37.80;29.40;;;;;;4964718;28;20447;-69
2023/07/13 08:51:48;;;;;;;1.63;1.53;;;38.60;29.10;;;;;;4983868;28;20538;-69
2023/07/13 08:54:41;;;;;;;2.60;1.70;;;39.30;28.60;;;;;;4967910;28;20505;-69
2023/07/13 08:57:32;;;;;;;1.77;1.40;;;39.90;28.30;;;;;;4965755;28;20965;-69
2023/07/13 08:59:58;;;;;;;4.93;1.87;;;38.00;28.60;;;;;;4966539;28;20513;-69
2023/07/13 09:02:53;;;;;;;3.10;2.00;;;36.30;30.30;;;;;;4968170;28;20551;-69
2023/07/13 09:05:40;;;;;;;2.90;1.70;;;37.20;30.80;;;;;;4967480;28;20266;-69
2023/07/13 09:08:24;;;;;;;3.77;2.07;;;37.40;29.90;;;;;;4966997;28;20486;-69
2023/07/13 09:10:57;;;;;;;1.67;1.50;;;37.90;29.70;;;;;;4967418;28;20426;-69
2023/07/13 09:13:37;;;;;;;3.90;2.10;;;38.70;28.90;;;;;;4966564;28;20562;-70
2023/07/13 09:16:03;;;;;;;1.97;1.77;;;38.40;29.50;;;;;;4965576;28;20535;-69
2023/07/13 09:18:33;;;;;;;2.27;1.60;;;37.70;29.40;;;;;;4959551;28;20455;-69
2023/07/13 09:21:23;;;;;;;7.73;2.30;;;35.40;31.30;;;;;;4968779;28;20895;-69
2023/07/13 09:23:55;;;;;;;4.30;3.60;;;33.70;33.30;;;;;;4967701;28;20490;-68
2023/07/13 09:26:23;;;;;;;2.43;1.70;;;34.10;34.50;;;;;;4966768;28;20456;-69
2023/07/13 09:28:55;;;;;;;2.43;2.00;;;35.00;33.50;;;;;;4966295;28;20539;-69
2023/07/13 09:31:38;;;;;;;3.17;2.40;;;35.30;32.40;;;;;;4969437;28;20501;-69
2023/07/13 09:34:10;;;;;;;4.40;2.20;;;36.20;31.90;;;;;;4968016;28;21042;-69
2023/07/13 09:36:35;;;;;;;3.13;2.60;;;37.30;31.20;;;;;;4968166;28;20443;-69
2023/07/13 09:39:13;;;;;;;3.50;1.67;;;35.70;31.40;;;;;;4966495;28;20502;-69
2023/07/13 09:42:15;;;;;;;1.53;1.43;;;34.70;31.70;;;;;;4968123;28;20194;-68
2023/07/13 09:44:54;;;;;;;5.60;1.73;;;33.50;33.00;;;;;;4965987;28;20537;-68
2023/07/13 09:47:32;;;;;;;2.30;2.10;;;32.40;34.70;;;;;;4967572;28;20795;-68
2023/07/13 09:50:03;;;;;;;2.43;1.80;;;30.90;36.50;;;;;;4965973;28;20437;-68
2023/07/13 09:52:40;;;;;;;1.73;1.60;;;30.90;37.40;;;;;;4966263;28;21173;-68
2023/07/13 09:55:34;;;;;;;2.60;1.63;;;32.00;36.60;;;;;;4967819;28;20443;-68
2023/07/13 09:58:16;;;;;;;2.23;1.97;;;33.40;35.00;;;;;;4965648;28;20501;-68
2023/07/13 10:00:53;;;;;;;2.53;1.97;;;33.60;33.90;;;;;;4968269;28;20796;-68
2023/07/13 10:03:22;;;;;;;3.23;1.80;;;33.30;34.20;;;;;;4967854;28;20459;-69
2023/07/13 10:05:51;;;;;;;4.00;2.23;;;32.40;34.70;;;;;;4972268;28;20449;-68
2023/07/13 10:08:30;;;;;;;3.63;1.90;;;31.20;36.00;;;;;;4969775;28;20454;-67
2023/07/13 10:11:22;;;;;;;2.00;1.80;;;32.00;36.70;;;;;;4972149;28;20454;-67
2023/07/13 10:13:53;;;;;;;3.43;2.10;;;31.90;35.70;;;;;;4984987;28;20494;-67
2023/07/13 10:16:19;;;;;;;1.97;1.77;;;32.20;35.20;;;;;;4971561;28;20455;-68
2023/07/13 10:18:49;;;;;;;4.67;1.53;;;32.50;35.60;;;;;;4971494;28;20841;-68
2023/07/13 10:21:21;;;;;;;2.40;1.60;;;32.60;34.60;;;;;;4971546;28;20184;-68
2023/07/13 10:23:58;;;;;;;3.63;2.10;;;32.50;34.70;;;;;;4969410;28;20498;-68
2023/07/13 10:26:34;;;;;;;2.37;2.17;;;32.40;35.70;;;;;;4971361;28;20442;-68
2023/07/13 10:29:11;;;;;;;2.93;1.90;;;31.70;35.80;;;;;;4968502;28;20537;-68
2023/07/13 10:31:38;;;;;;;2.40;1.73;;;31.30;37.10;;;;;;4971133;28;20714;-68
2023/07/13 10:34:05;;;;;;;3.07;1.40;;;31.10;36.80;;;;;;4970858;28;20481;-68
2023/07/13 10:36:57;;;;;;;2.63;1.60;;;30.60;37.30;;;;;;4969339;28;20555;-68
2023/07/13 10:39:26;;;;;;;3.13;1.67;;;30.20;37.70;;;;;;4969903;28;20522;-67
2023/07/13 10:41:57;;;;;;;2.00;1.70;;;30.30;37.80;;;;;;4971492;28;20461;-67
2023/07/13 10:44:28;;;;;;;2.50;2.07;;;30.20;37.90;;;;;;4968967;28;20462;-67
2023/07/13 10:46:58;;;;;;;2.00;1.80;;;30.10;38.10;;;;;;4971160;28;20490;-67
2023/07/13 10:49:26;;;;;;;3.40;2.97;;;29.70;39.40;;;;;;4971870;28;20446;-68
2023/07/13 10:51:52;;;;;;;2.20;1.40;;;29.40;39.40;;;;;;4970236;28;20571;-69
2023/07/13 10:54:42;;;;;;;4.20;2.03;;;29.50;39.40;;;;;;4970348;28;20829;-69
2023/07/13 10:57:20;;;;;;;2.50;2.10;;;29.80;40.10;;;;;;4970638;28;20895;-68
2023/07/13 10:59:50;;;;;;;3.10;2.43;;;30.00;40.00;;;;;;4980979;28;20453;-68
2023/07/13 11:02:27;;;;;;;4.10;2.50;;;30.30;39.50;;;;;;4970442;28;20462;-69
2023/07/13 11:04:54;;;;;;;4.03;1.83;;;30.50;38.70;;;;;;4968461;28;20452;-69
2023/07/13 11:07:32;;;;;;;1.90;1.57;;;31.00;38.10;;;;;;4971127;28;20530;-69
2023/07/13 11:10:05;;;;;;;2.20;1.80;;;31.20;37.30;;;;;;4970473;28;20465;-69
2023/07/13 11:12:50;;;;;;;2.00;1.90;;;31.30;37.20;;;;;;4970072;28;20540;-70
2023/07/13 11:15:29;;;;;;;1.83;1.43;;;31.10;37.50;;;;;;4968538;28;20510;-69
2023/07/13 11:17:59;;;;;;;2.13;1.40;;;30.80;37.50;;;;;;4969788;28;20451;-68
2023/07/13 11:20:39;;;;;;;7.27;3.93;;;30.40;37.80;;;;;;4969956;28;20447;-68
2023/07/13 11:23:16;;;;;;;3.70;1.70;;;29.60;39.10;;;;;;4969659;28;20462;-68
2023/07/13 11:25:42;;;;;;;6.10;1.90;;;29.00;40.70;;;;;;4970987;28;20439;-67
2023/07/13 11:28:11;;;;;;;4.37;3.30;;;28.40;41.30;;;;;;4967541;28;20483;-68
2023/07/13 11:30:43;;;;;;;2.20;1.50;;;28.30;42.50;;;;;;4971729;28;20543;-67
2023/07/13 11:33:17;;;;;;;4.00;1.90;;;28.50;42.30;;;;;;4970113;28;20466;-68
2023/07/13 11:35:48;;;;;;;4.10;1.97;;;29.80;41.00;;;;;;4970746;28;20459;-68
2023/07/13 11:38:19;;;;;;;2.90;1.50;;;30.30;39.80;;;;;;4967298;28;20450;-68
2023/07/13 11:40:47;;;;;;;4.57;2.37;;;30.40;39.90;;;;;;4970194;28;20425;-67
2023/07/13 11:43:15;;;;;;;2.90;2.23;;;30.50;38.70;;;;;;4968631;28;20542;-68
2023/07/13 11:45:41;;;;;;;2.07;1.70;;;30.80;38.60;;;;;;4970841;28;20447;-68
2023/07/13 11:48:21;;;;;;;2.57;1.63;;;32.00;38.00;;;;;;4969551;28;21037;-68
2023/07/13 11:50:53;;;;;;;2.97;1.90;;;32.30;36.70;;;;;;4969777;28;20450;-68
2023/07/13 11:53:19;;;;;;;3.70;1.80;;;31.40;36.70;;;;;;4968835;28;20474;-69
2023/07/13 11:55:46;;;;;;;7.30;2.47;;;31.20;38.10;;;;;;4970160;28;20454;-67
2023/07/13 11:58:20;;;;;;;2.67;2.47;;;31.40;38.30;;;;;;4967841;28;20556;-68
2023/07/13 12:00:47;;;;;;;2.33;1.90;;;31.60;37.70;;;;;;4968777;28;20438;-68
2023/07/13 12:03:24;;;;;;;2.43;2.20;;;31.10;37.70;;;;;;4970926;28;20460;-68
2023/07/13 12:06:01;;;;;;;4.00;1.70;;;30.80;38.90;;;;;;4969078;28;20452;-68
2023/07/13 12:08:28;;;;;;;4.60;2.10;;;30.20;38.80;;;;;;4969138;28;20447;-68
2023/07/13 12:11:04;;;;;;;4.87;2.50;;;30.00;40.10;;;;;;4970012;28;20447;-68
2023/07/13 12:13:36;;;;;;;1.80;1.70;;;29.40;40.20;;;;;;4967878;28;20481;-67
2023/07/13 12:16:01;;;;;;;2.40;1.90;;;29.20;40.40;;;;;;4969951;28;20450;-68
2023/07/13 12:18:33;;;;;;;4.30;2.10;;;29.30;40.90;;;;;;4969314;28;20447;-68
2023/07/13 12:21:00;;;;;;;2.57;1.70;;;29.20;41.90;;;;;;4970374;28;20274;-68
2023/07/13 12:23:25;;;;;;;2.60;1.70;;;29.40;41.20;;;;;;4968748;28;21310;-68
2023/07/13 12:25:51;;;;;;;2.00;1.63;;;29.20;41.20;;;;;;4969658;28;20457;-67
2023/07/13 12:28:56;;;;;;;2.67;2.27;;;29.30;40.60;;;;;;4965964;28;20191;-67
2023/07/13 12:31:32;;;;;;;3.43;2.13;;;29.10;41.00;;;;;;4965280;28;20465;-69
2023/07/13 12:34:08;;;;;;;2.10;1.70;;;28.80;40.70;;;;;;4964372;28;20490;-68
2023/07/13 12:36:37;;;;;;;2.87;2.23;;;28.70;41.00;;;;;;4967751;28;20447;-68
2023/07/13 12:39:34;;;;;;;2.40;2.10;;;28.30;40.60;;;;;;4968637;28;20808;-67
2023/07/13 12:42:28;;;;;;;2.33;1.73;;;28.00;41.50;;;;;;4967347;28;20432;-68
2023/07/13 12:45:00;;;;;;;3.33;2.40;;;27.80;42.00;;;;;;4969433;28;20518;-68
2023/07/13 12:47:27;;;;;;;2.60;1.70;;;27.80;42.70;;;;;;4970185;28;20466;-68
2023/07/13 12:49:58;;;;;;;3.93;2.10;;;27.70;42.60;;;;;;4968318;28;20946;-68
2023/07/13 12:52:34;;;;;;;4.23;2.00;;;28.00;42.00;;;;;;4968167;28;20957;-68
2023/07/13 12:55:15;;;;;;;3.90;1.80;;;28.00;41.80;;;;;;4963327;28;20848;-68
2023/07/13 12:57:49;;;;;;;1.80;1.70;;;28.10;41.80;;;;;;4962689;28;20489;-69